sensor_id;sensor_type;location;lat;lon;timestamp;temperature;humidity
573;DHT22;271;51.114;13.780;2024-03-22T00:02:28;9.10;1.00
573;DHT22;271;51.114;13.780;2024-03-22T00:05:15;9.10;1.00
573;DHT22;271;51.114;13.780;2024-03-22T00:08:04;9.10;1.00
573;DHT22;271;51.114;13.780;2024-03-22T00:10:51;9.10;1.00
573;DHT22;271;51.114;13.780;2024-03-22T00:13:38;9.20;1.00
573;DHT22;271;51.114;13.780;2024-03-22T00:16:26;9.20;1.00
573;DHT22;271;51.114;13.780;2024-03-22T00:19:14;9.20;1.00
573;DHT22;271;51.114;13.780;2024-03-22T00:22:01;9.20;1.00
573;DHT22;271;51.114;13.780;2024-03-22T00:24:48;9.20;1.00
573;DHT22;271;51.114;13.780;2024-03-22T00:27:35;9.20;1.00
573;DHT22;271;51.114;13.780;2024-03-22T00:30:23;9.20;1.00
573;DHT22;271;51.114;13.780;2024-03-22T00:33:11;9.10;1.00
573;DHT22;271;51.114;13.780;2024-03-22T00:35:58;9.10;1.00
573;DHT22;271;51.114;13.780;2024-03-22T00:38:46;9.20;1.00
573;DHT22;271;51.114;13.780;2024-03-22T00:41:34;9.10;1.00
573;DHT22;271;51.114;13.780;2024-03-22T00:44:21;9.10;1.00
573;DHT22;271;51.114;13.780;2024-03-22T00:47:08;9.10;1.00
573;DHT22;271;51.114;13.780;2024-03-22T00:49:56;9.10;1.00
573;DHT22;271;51.114;13.780;2024-03-22T00:52:44;9.20;1.00
573;DHT22;271;51.114;13.780;2024-03-22T00:55:31;9.00;1.00
573;DHT22;271;51.114;13.780;2024-03-22T00:58:19;8.90;1.00
573;DHT22;271;51.114;13.780;2024-03-22T01:01:06;8.90;1.00
573;DHT22;271;51.114;13.780;2024-03-22T01:03:53;8.90;1.00
573;DHT22;271;51.114;13.780;2024-03-22T01:06:42;9.00;1.00
573;DHT22;271;51.114;13.780;2024-03-22T01:09:30;9.00;1.00
573;DHT22;271;51.114;13.780;2024-03-22T01:12:18;9.10;1.00
573;DHT22;271;51.114;13.780;2024-03-22T01:15:06;9.00;1.00
573;DHT22;271;51.114;13.780;2024-03-22T01:17:53;9.00;1.00
573;DHT22;271;51.114;13.780;2024-03-22T01:20:41;9.00;1.00
573;DHT22;271;51.114;13.780;2024-03-22T01:23:30;9.00;1.00
573;DHT22;271;51.114;13.780;2024-03-22T01:26:18;8.90;1.00
573;DHT22;271;51.114;13.780;2024-03-22T01:29:04;8.90;1.00
573;DHT22;271;51.114;13.780;2024-03-22T01:31:52;8.80;1.00
573;DHT22;271;51.114;13.780;2024-03-22T01:34:39;8.80;1.00
573;DHT22;271;51.114;13.780;2024-03-22T01:37:27;8.80;1.00
573;DHT22;271;51.114;13.780;2024-03-22T01:40:15;8.80;1.00
573;DHT22;271;51.114;13.780;2024-03-22T01:43:02;8.80;1.00
573;DHT22;271;51.114;13.780;2024-03-22T01:45:49;8.80;1.00
573;DHT22;271;51.114;13.780;2024-03-22T01:48:37;8.80;1.00
573;DHT22;271;51.114;13.780;2024-03-22T01:51:24;8.80;1.00
573;DHT22;271;51.114;13.780;2024-03-22T01:54:11;8.80;1.00
573;DHT22;271;51.114;13.780;2024-03-22T01:57:00;8.70;1.00
573;DHT22;271;51.114;13.780;2024-03-22T01:59:49;8.70;1.00
573;DHT22;271;51.114;13.780;2024-03-22T02:02:38;8.70;1.00
573;DHT22;271;51.114;13.780;2024-03-22T02:05:25;8.60;1.00
573;DHT22;271;51.114;13.780;2024-03-22T02:08:12;8.70;1.00
573;DHT22;271;51.114;13.780;2024-03-22T02:11:00;8.60;1.00
573;DHT22;271;51.114;13.780;2024-03-22T02:13:48;8.70;1.00
573;DHT22;271;51.114;13.780;2024-03-22T02:16:35;8.60;1.00
573;DHT22;271;51.114;13.780;2024-03-22T02:19:22;8.60;1.00
573;DHT22;271;51.114;13.780;2024-03-22T02:22:10;8.60;1.00
573;DHT22;271;51.114;13.780;2024-03-22T02:24:59;8.60;1.00
573;DHT22;271;51.114;13.780;2024-03-22T02:27:45;8.60;1.00
573;DHT22;271;51.114;13.780;2024-03-22T02:30:36;8.60;1.00
573;DHT22;271;51.114;13.780;2024-03-22T02:33:23;8.60;1.00
573;DHT22;271;51.114;13.780;2024-03-22T02:36:11;8.60;1.00
573;DHT22;271;51.114;13.780;2024-03-22T02:38:58;8.50;1.00
573;DHT22;271;51.114;13.780;2024-03-22T02:41:47;8.40;1.00
573;DHT22;271;51.114;13.780;2024-03-22T02:44:34;8.40;1.00
573;DHT22;271;51.114;13.780;2024-03-22T02:47:24;8.40;1.00
573;DHT22;271;51.114;13.780;2024-03-22T02:50:12;8.40;1.00
573;DHT22;271;51.114;13.780;2024-03-22T02:52:59;8.40;1.00
573;DHT22;271;51.114;13.780;2024-03-22T02:55:46;8.40;1.00
573;DHT22;271;51.114;13.780;2024-03-22T02:58:34;8.40;1.00
573;DHT22;271;51.114;13.780;2024-03-22T03:01:23;8.40;1.00
573;DHT22;271;51.114;13.780;2024-03-22T03:04:09;8.40;1.00
573;DHT22;271;51.114;13.780;2024-03-22T03:06:57;8.50;1.00
573;DHT22;271;51.114;13.780;2024-03-22T03:09:44;8.50;1.00
573;DHT22;271;51.114;13.780;2024-03-22T03:12:31;8.50;1.00
573;DHT22;271;51.114;13.780;2024-03-22T03:15:20;8.50;1.00
573;DHT22;271;51.114;13.780;2024-03-22T03:18:07;8.50;1.00
573;DHT22;271;51.114;13.780;2024-03-22T03:20:54;8.50;1.00
573;DHT22;271;51.114;13.780;2024-03-22T03:23:42;8.50;1.00
573;DHT22;271;51.114;13.780;2024-03-22T03:26:29;8.40;1.00
573;DHT22;271;51.114;13.780;2024-03-22T03:29:16;8.40;1.00
573;DHT22;271;51.114;13.780;2024-03-22T03:32:05;8.40;1.00
573;DHT22;271;51.114;13.780;2024-03-22T03:34:52;8.40;1.00
573;DHT22;271;51.114;13.780;2024-03-22T03:37:39;8.40;1.00
573;DHT22;271;51.114;13.780;2024-03-22T03:40:27;8.30;1.00
573;DHT22;271;51.114;13.780;2024-03-22T03:43:14;8.40;1.00
573;DHT22;271;51.114;13.780;2024-03-22T03:46:01;8.30;1.00
573;DHT22;271;51.114;13.780;2024-03-22T03:48:50;8.20;1.00
573;DHT22;271;51.114;13.780;2024-03-22T03:51:37;8.30;1.00
573;DHT22;271;51.114;13.780;2024-03-22T03:54:24;8.30;1.00
573;DHT22;271;51.114;13.780;2024-03-22T03:57:12;8.30;1.00
573;DHT22;271;51.114;13.780;2024-03-22T03:59:58;8.30;1.00
573;DHT22;271;51.114;13.780;2024-03-22T04:02:48;8.20;1.00
573;DHT22;271;51.114;13.780;2024-03-22T04:05:37;8.20;1.00
573;DHT22;271;51.114;13.780;2024-03-22T04:08:24;8.20;1.00
573;DHT22;271;51.114;13.780;2024-03-22T04:11:12;8.20;1.00
573;DHT22;271;51.114;13.780;2024-03-22T04:14:00;8.20;1.00
573;DHT22;271;51.114;13.780;2024-03-22T04:16:46;8.20;1.00
573;DHT22;271;51.114;13.780;2024-03-22T04:19:34;8.20;1.00
573;DHT22;271;51.114;13.780;2024-03-22T04:22:22;8.20;1.00
573;DHT22;271;51.114;13.780;2024-03-22T04:25:10;8.20;1.00
573;DHT22;271;51.114;13.780;2024-03-22T04:27:56;8.20;1.00
573;DHT22;271;51.114;13.780;2024-03-22T04:30:44;8.20;1.00
573;DHT22;271;51.114;13.780;2024-03-22T04:33:40;8.20;1.00
573;DHT22;271;51.114;13.780;2024-03-22T04:36:27;8.10;1.00
573;DHT22;271;51.114;13.780;2024-03-22T04:39:15;8.10;1.00
573;DHT22;271;51.114;13.780;2024-03-22T04:42:04;8.10;1.00
573;DHT22;271;51.114;13.780;2024-03-22T04:44:51;8.10;1.00
573;DHT22;271;51.114;13.780;2024-03-22T04:47:39;8.00;1.00
573;DHT22;271;51.114;13.780;2024-03-22T04:50:27;8.00;1.00
573;DHT22;271;51.114;13.780;2024-03-22T04:53:14;8.00;1.00
573;DHT22;271;51.114;13.780;2024-03-22T04:56:03;8.00;1.00
573;DHT22;271;51.114;13.780;2024-03-22T04:58:51;8.00;1.00
573;DHT22;271;51.114;13.780;2024-03-22T05:01:38;8.10;1.00
573;DHT22;271;51.114;13.780;2024-03-22T05:04:25;8.00;1.00
573;DHT22;271;51.114;13.780;2024-03-22T05:07:12;8.00;1.00
573;DHT22;271;51.114;13.780;2024-03-22T05:10:00;8.00;1.00
573;DHT22;271;51.114;13.780;2024-03-22T05:12:48;8.00;1.00
573;DHT22;271;51.114;13.780;2024-03-22T05:15:35;8.00;1.00
573;DHT22;271;51.114;13.780;2024-03-22T05:18:22;8.00;1.00
573;DHT22;271;51.114;13.780;2024-03-22T05:21:10;8.00;1.00
573;DHT22;271;51.114;13.780;2024-03-22T05:23:56;8.00;1.00
573;DHT22;271;51.114;13.780;2024-03-22T05:26:44;8.10;1.00
573;DHT22;271;51.114;13.780;2024-03-22T05:29:32;8.20;1.00
573;DHT22;271;51.114;13.780;2024-03-22T05:32:20;8.20;1.00
573;DHT22;271;51.114;13.780;2024-03-22T05:35:07;8.30;1.00
573;DHT22;271;51.114;13.780;2024-03-22T05:37:54;8.30;1.00
573;DHT22;271;51.114;13.780;2024-03-22T05:40:41;8.40;1.00
573;DHT22;271;51.114;13.780;2024-03-22T05:43:29;8.40;1.00
573;DHT22;271;51.114;13.780;2024-03-22T05:46:17;8.50;1.00
573;DHT22;271;51.114;13.780;2024-03-22T05:49:04;8.50;1.00
573;DHT22;271;51.114;13.780;2024-03-22T05:51:51;8.50;1.00
573;DHT22;271;51.114;13.780;2024-03-22T05:54:39;8.60;1.00
573;DHT22;271;51.114;13.780;2024-03-22T05:57:26;8.50;1.00
573;DHT22;271;51.114;13.780;2024-03-22T06:00:15;8.60;1.00
573;DHT22;271;51.114;13.780;2024-03-22T06:03:03;8.60;1.00
573;DHT22;271;51.114;13.780;2024-03-22T06:05:52;8.60;1.00
573;DHT22;271;51.114;13.780;2024-03-22T06:08:41;8.70;1.00
573;DHT22;271;51.114;13.780;2024-03-22T06:11:42;8.70;1.00
573;DHT22;271;51.114;13.780;2024-03-22T06:14:30;8.80;1.00
573;DHT22;271;51.114;13.780;2024-03-22T06:17:17;8.90;1.00
573;DHT22;271;51.114;13.780;2024-03-22T06:20:07;8.90;1.00
573;DHT22;271;51.114;13.780;2024-03-22T06:22:57;8.90;1.00
573;DHT22;271;51.114;13.780;2024-03-22T06:25:51;8.90;1.00
573;DHT22;271;51.114;13.780;2024-03-22T06:28:38;9.00;1.00
573;DHT22;271;51.114;13.780;2024-03-22T06:31:25;9.10;1.00
573;DHT22;271;51.114;13.780;2024-03-22T06:34:12;9.10;1.00
573;DHT22;271;51.114;13.780;2024-03-22T06:37:01;9.30;1.00
573;DHT22;271;51.114;13.780;2024-03-22T06:39:51;9.40;1.00
573;DHT22;271;51.114;13.780;2024-03-22T06:42:39;9.50;1.00
573;DHT22;271;51.114;13.780;2024-03-22T06:45:28;9.70;1.00
573;DHT22;271;51.114;13.780;2024-03-22T06:48:16;9.80;1.00
573;DHT22;271;51.114;13.780;2024-03-22T06:51:06;10.10;1.00
573;DHT22;271;51.114;13.780;2024-03-22T06:53:55;10.00;1.00
573;DHT22;271;51.114;13.780;2024-03-22T06:56:44;10.10;1.00
573;DHT22;271;51.114;13.780;2024-03-22T06:59:33;10.00;1.00
573;DHT22;271;51.114;13.780;2024-03-22T07:02:21;10.10;1.00
573;DHT22;271;51.114;13.780;2024-03-22T07:05:09;10.20;1.00
573;DHT22;271;51.114;13.780;2024-03-22T07:07:58;10.20;1.00
573;DHT22;271;51.114;13.780;2024-03-22T07:10:47;10.20;1.00
573;DHT22;271;51.114;13.780;2024-03-22T07:13:37;10.30;1.00
573;DHT22;271;51.114;13.780;2024-03-22T07:16:25;10.20;1.00
573;DHT22;271;51.114;13.780;2024-03-22T07:19:15;10.20;1.00
573;DHT22;271;51.114;13.780;2024-03-22T07:22:02;10.20;1.00
573;DHT22;271;51.114;13.780;2024-03-22T07:24:53;10.20;1.00
573;DHT22;271;51.114;13.780;2024-03-22T07:27:42;10.20;1.00
573;DHT22;271;51.114;13.780;2024-03-22T07:30:32;10.30;1.00
573;DHT22;271;51.114;13.780;2024-03-22T07:33:21;10.30;1.00
573;DHT22;271;51.114;13.780;2024-03-22T07:36:08;10.40;1.00
573;DHT22;271;51.114;13.780;2024-03-22T07:42:19;10.70;1.00
573;DHT22;271;51.114;13.780;2024-03-22T07:45:10;10.90;1.00
573;DHT22;271;51.114;13.780;2024-03-22T07:47:57;11.00;1.00
573;DHT22;271;51.114;13.780;2024-03-22T07:50:56;11.20;1.00
573;DHT22;271;51.114;13.780;2024-03-22T07:53:42;11.10;1.00
573;DHT22;271;51.114;13.780;2024-03-22T07:56:30;11.10;1.00
573;DHT22;271;51.114;13.780;2024-03-22T07:59:17;11.30;1.00
573;DHT22;271;51.114;13.780;2024-03-22T08:02:06;11.50;1.00
573;DHT22;271;51.114;13.780;2024-03-22T08:04:52;11.60;1.00
573;DHT22;271;51.114;13.780;2024-03-22T08:07:41;11.70;1.00
573;DHT22;271;51.114;13.780;2024-03-22T08:10:29;11.70;1.00
573;DHT22;271;51.114;13.780;2024-03-22T08:13:20;12.00;1.00
573;DHT22;271;51.114;13.780;2024-03-22T08:16:10;12.10;1.00
573;DHT22;271;51.114;13.780;2024-03-22T08:18:59;12.20;1.00
573;DHT22;271;51.114;13.780;2024-03-22T08:21:45;12.30;1.00
573;DHT22;271;51.114;13.780;2024-03-22T08:24:34;12.60;1.00
573;DHT22;271;51.114;13.780;2024-03-22T08:27:20;12.80;1.00
573;DHT22;271;51.114;13.780;2024-03-22T08:30:13;12.80;1.00
573;DHT22;271;51.114;13.780;2024-03-22T08:33:01;12.90;1.00
573;DHT22;271;51.114;13.780;2024-03-22T08:35:52;12.90;1.00
573;DHT22;271;51.114;13.780;2024-03-22T08:38:38;13.00;1.00
573;DHT22;271;51.114;13.780;2024-03-22T08:41:26;13.00;1.00
573;DHT22;271;51.114;13.780;2024-03-22T08:44:13;13.00;1.00
573;DHT22;271;51.114;13.780;2024-03-22T08:47:06;12.90;1.00
573;DHT22;271;51.114;13.780;2024-03-22T08:49:53;13.00;1.00
573;DHT22;271;51.114;13.780;2024-03-22T08:52:48;13.00;1.00
573;DHT22;271;51.114;13.780;2024-03-22T08:55:35;13.00;1.00
573;DHT22;271;51.114;13.780;2024-03-22T08:58:23;13.00;1.00
573;DHT22;271;51.114;13.780;2024-03-22T09:01:13;13.00;1.00
573;DHT22;271;51.114;13.780;2024-03-22T09:04:04;13.20;1.00
573;DHT22;271;51.114;13.780;2024-03-22T09:06:54;13.60;1.00
573;DHT22;271;51.114;13.780;2024-03-22T09:09:44;13.90;1.00
573;DHT22;271;51.114;13.780;2024-03-22T09:16:33;14.00;1.00
573;DHT22;271;51.114;13.780;2024-03-22T09:19:21;14.30;1.00
573;DHT22;271;51.114;13.780;2024-03-22T09:22:08;14.60;1.00
573;DHT22;271;51.114;13.780;2024-03-22T09:24:57;14.90;1.00
573;DHT22;271;51.114;13.780;2024-03-22T09:28:09;15.20;1.00
573;DHT22;271;51.114;13.780;2024-03-22T09:31:04;15.70;1.00
573;DHT22;271;51.114;13.780;2024-03-22T09:33:52;16.20;1.00
573;DHT22;271;51.114;13.780;2024-03-22T09:36:40;16.30;1.00
573;DHT22;271;51.114;13.780;2024-03-22T09:39:28;16.20;1.00
573;DHT22;271;51.114;13.780;2024-03-22T09:42:22;15.90;1.00
573;DHT22;271;51.114;13.780;2024-03-22T09:45:11;15.50;1.00
573;DHT22;271;51.114;13.780;2024-03-22T09:47:59;15.70;1.00
573;DHT22;271;51.114;13.780;2024-03-22T09:50:48;15.80;1.00
573;DHT22;271;51.114;13.780;2024-03-22T09:53:34;15.90;1.00
573;DHT22;271;51.114;13.780;2024-03-22T09:56:24;16.30;1.00
573;DHT22;271;51.114;13.780;2024-03-22T09:59:14;16.30;1.00
573;DHT22;271;51.114;13.780;2024-03-22T10:02:03;16.20;1.00
573;DHT22;271;51.114;13.780;2024-03-22T10:04:52;16.10;1.00
573;DHT22;271;51.114;13.780;2024-03-22T10:07:39;16.30;1.00
573;DHT22;271;51.114;13.780;2024-03-22T10:14:06;16.90;1.00
573;DHT22;271;51.114;13.780;2024-03-22T10:16:55;17.10;1.00
573;DHT22;271;51.114;13.780;2024-03-22T10:19:42;16.90;1.00
573;DHT22;271;51.114;13.780;2024-03-22T10:22:29;16.70;1.00
573;DHT22;271;51.114;13.780;2024-03-22T10:25:17;16.50;1.00
573;DHT22;271;51.114;13.780;2024-03-22T10:28:04;16.40;1.00
573;DHT22;271;51.114;13.780;2024-03-22T10:30:53;16.40;1.00
573;DHT22;271;51.114;13.780;2024-03-22T10:33:41;16.50;1.00
573;DHT22;271;51.114;13.780;2024-03-22T10:36:32;16.70;1.00
573;DHT22;271;51.114;13.780;2024-03-22T10:39:19;16.90;1.00
573;DHT22;271;51.114;13.780;2024-03-22T10:42:07;17.00;1.00
573;DHT22;271;51.114;13.780;2024-03-22T10:44:53;16.70;1.00
573;DHT22;271;51.114;13.780;2024-03-22T10:54:08;16.70;1.00
573;DHT22;271;51.114;13.780;2024-03-22T11:00:59;16.90;1.00
573;DHT22;271;51.114;13.780;2024-03-22T11:04:03;16.90;1.00
573;DHT22;271;51.114;13.780;2024-03-22T11:06:57;16.90;1.00
573;DHT22;271;51.114;13.780;2024-03-22T11:09:52;16.90;1.00
573;DHT22;271;51.114;13.780;2024-03-22T11:12:39;17.00;1.00
573;DHT22;271;51.114;13.780;2024-03-22T11:15:28;16.70;1.00
573;DHT22;271;51.114;13.780;2024-03-22T11:25:26;16.30;1.00
573;DHT22;271;51.114;13.780;2024-03-22T11:28:20;16.30;1.00
573;DHT22;271;51.114;13.780;2024-03-22T11:31:13;16.30;1.00
573;DHT22;271;51.114;13.780;2024-03-22T11:34:00;16.20;1.00
573;DHT22;271;51.114;13.780;2024-03-22T11:36:47;16.20;1.00
573;DHT22;271;51.114;13.780;2024-03-22T11:39:36;16.20;1.00
573;DHT22;271;51.114;13.780;2024-03-22T11:42:25;16.30;1.00
573;DHT22;271;51.114;13.780;2024-03-22T11:45:14;16.40;1.00
573;DHT22;271;51.114;13.780;2024-03-22T11:48:02;16.50;1.00
573;DHT22;271;51.114;13.780;2024-03-22T11:50:49;16.60;1.00
573;DHT22;271;51.114;13.780;2024-03-22T11:53:37;16.60;1.00
573;DHT22;271;51.114;13.780;2024-03-22T11:56:25;16.70;1.00
573;DHT22;271;51.114;13.780;2024-03-22T11:59:14;16.70;1.00
573;DHT22;271;51.114;13.780;2024-03-22T12:02:01;16.80;1.00
573;DHT22;271;51.114;13.780;2024-03-22T12:04:49;16.80;1.00
573;DHT22;271;51.114;13.780;2024-03-22T12:07:37;17.00;1.00
573;DHT22;271;51.114;13.780;2024-03-22T12:10:24;17.00;1.00
573;DHT22;271;51.114;13.780;2024-03-22T12:13:37;17.00;1.00
573;DHT22;271;51.114;13.780;2024-03-22T12:16:26;17.20;1.00
573;DHT22;271;51.114;13.780;2024-03-22T12:19:13;17.10;1.00
573;DHT22;271;51.114;13.780;2024-03-22T12:22:01;17.20;1.00
573;DHT22;271;51.114;13.780;2024-03-22T12:24:52;17.20;1.00
573;DHT22;271;51.114;13.780;2024-03-22T12:27:41;17.20;1.00
573;DHT22;271;51.114;13.780;2024-03-22T12:30:28;17.30;1.00
573;DHT22;271;51.114;13.780;2024-03-22T12:33:19;17.40;1.00
573;DHT22;271;51.114;13.780;2024-03-22T12:36:06;17.50;1.00
573;DHT22;271;51.114;13.780;2024-03-22T12:38:54;17.70;1.00
573;DHT22;271;51.114;13.780;2024-03-22T12:41:40;17.50;1.00
573;DHT22;271;51.114;13.780;2024-03-22T12:44:28;17.40;1.00
573;DHT22;271;51.114;13.780;2024-03-22T12:47:15;17.40;1.00
573;DHT22;271;51.114;13.780;2024-03-22T12:50:05;17.30;1.00
573;DHT22;271;51.114;13.780;2024-03-22T12:52:52;17.30;1.00
573;DHT22;271;51.114;13.780;2024-03-22T12:55:40;17.20;1.00
573;DHT22;271;51.114;13.780;2024-03-22T12:58:27;16.80;1.00
573;DHT22;271;51.114;13.780;2024-03-22T13:01:14;16.70;1.00
573;DHT22;271;51.114;13.780;2024-03-22T13:04:02;16.80;1.00
573;DHT22;271;51.114;13.780;2024-03-22T13:06:50;16.60;1.00
573;DHT22;271;51.114;13.780;2024-03-22T13:09:38;16.50;1.00
573;DHT22;271;51.114;13.780;2024-03-22T13:12:25;16.60;1.00
573;DHT22;271;51.114;13.780;2024-03-22T13:15:13;16.60;1.00
573;DHT22;271;51.114;13.780;2024-03-22T13:17:59;16.60;1.00
573;DHT22;271;51.114;13.780;2024-03-22T13:20:50;16.50;1.00
573;DHT22;271;51.114;13.780;2024-03-22T13:23:38;16.50;1.00
573;DHT22;271;51.114;13.780;2024-03-22T13:26:28;16.40;1.00
573;DHT22;271;51.114;13.780;2024-03-22T13:29:14;16.30;1.00
573;DHT22;271;51.114;13.780;2024-03-22T13:32:06;16.30;1.00
573;DHT22;271;51.114;13.780;2024-03-22T13:34:53;16.30;1.00
573;DHT22;271;51.114;13.780;2024-03-22T13:37:41;16.30;1.00
573;DHT22;271;51.114;13.780;2024-03-22T13:40:32;16.30;1.00
573;DHT22;271;51.114;13.780;2024-03-22T13:43:22;16.40;1.00
573;DHT22;271;51.114;13.780;2024-03-22T13:46:08;16.40;1.00
573;DHT22;271;51.114;13.780;2024-03-22T13:49:01;16.60;1.00
573;DHT22;271;51.114;13.780;2024-03-22T13:51:48;16.60;1.00
573;DHT22;271;51.114;13.780;2024-03-22T13:54:38;16.60;1.00
573;DHT22;271;51.114;13.780;2024-03-22T13:57:26;16.40;1.00
573;DHT22;271;51.114;13.780;2024-03-22T14:00:15;16.30;1.00
573;DHT22;271;51.114;13.780;2024-03-22T14:03:03;16.20;1.00
573;DHT22;271;51.114;13.780;2024-03-22T14:05:54;16.10;1.00
573;DHT22;271;51.114;13.780;2024-03-22T14:08:45;16.00;1.00
573;DHT22;271;51.114;13.780;2024-03-22T14:11:37;16.00;1.00
573;DHT22;271;51.114;13.780;2024-03-22T14:14:26;15.80;1.00
573;DHT22;271;51.114;13.780;2024-03-22T14:17:18;15.90;1.00
573;DHT22;271;51.114;13.780;2024-03-22T14:27:19;16.00;1.00
573;DHT22;271;51.114;13.780;2024-03-22T14:33:38;15.90;1.00
573;DHT22;271;51.114;13.780;2024-03-22T14:36:28;15.90;1.00
573;DHT22;271;51.114;13.780;2024-03-22T14:39:17;15.90;1.00
573;DHT22;271;51.114;13.780;2024-03-22T14:42:11;15.90;1.00
573;DHT22;271;51.114;13.780;2024-03-22T14:45:20;15.80;1.00
573;DHT22;271;51.114;13.780;2024-03-22T15:34:23;15.30;1.00
573;DHT22;271;51.114;13.780;2024-03-22T15:37:12;15.30;1.00
573;DHT22;271;51.114;13.780;2024-03-22T15:39:59;15.30;1.00
573;DHT22;271;51.114;13.780;2024-03-22T15:42:47;15.20;1.00
573;DHT22;271;51.114;13.780;2024-03-22T15:45:36;15.20;1.00
573;DHT22;271;51.114;13.780;2024-03-22T15:48:31;15.20;1.00
573;DHT22;271;51.114;13.780;2024-03-22T15:51:22;15.20;1.00
573;DHT22;271;51.114;13.780;2024-03-22T15:54:13;15.10;1.00
573;DHT22;271;51.114;13.780;2024-03-22T15:57:00;15.20;1.00
573;DHT22;271;51.114;13.780;2024-03-22T15:59:51;15.20;1.00
573;DHT22;271;51.114;13.780;2024-03-22T16:02:38;15.20;1.00
573;DHT22;271;51.114;13.780;2024-03-22T16:05:29;15.20;1.00
573;DHT22;271;51.114;13.780;2024-03-22T16:08:18;15.20;1.00
573;DHT22;271;51.114;13.780;2024-03-22T16:11:06;15.20;1.00
573;DHT22;271;51.114;13.780;2024-03-22T16:13:53;15.20;1.00
573;DHT22;271;51.114;13.780;2024-03-22T16:16:46;15.20;1.00
573;DHT22;271;51.114;13.780;2024-03-22T16:19:40;15.10;1.00
573;DHT22;271;51.114;13.780;2024-03-22T16:22:32;15.10;1.00
573;DHT22;271;51.114;13.780;2024-03-22T16:25:48;15.10;1.00
573;DHT22;271;51.114;13.780;2024-03-22T16:28:34;15.00;1.00
573;DHT22;271;51.114;13.780;2024-03-22T16:31:26;15.00;1.00
573;DHT22;271;51.114;13.780;2024-03-22T16:34:12;15.00;1.00
573;DHT22;271;51.114;13.780;2024-03-22T16:37:00;15.00;1.00
573;DHT22;271;51.114;13.780;2024-03-22T16:39:47;14.90;1.00
573;DHT22;271;51.114;13.780;2024-03-22T16:42:44;14.80;1.00
573;DHT22;271;51.114;13.780;2024-03-22T16:45:32;14.80;1.00
573;DHT22;271;51.114;13.780;2024-03-22T16:48:19;14.70;1.00
573;DHT22;271;51.114;13.780;2024-03-22T16:51:07;14.80;1.00
573;DHT22;271;51.114;13.780;2024-03-22T16:53:54;14.80;1.00
573;DHT22;271;51.114;13.780;2024-03-22T16:56:42;14.80;1.00
573;DHT22;271;51.114;13.780;2024-03-22T16:59:30;14.70;1.00
573;DHT22;271;51.114;13.780;2024-03-22T17:02:18;14.70;1.00
573;DHT22;271;51.114;13.780;2024-03-22T17:05:06;14.70;1.00
573;DHT22;271;51.114;13.780;2024-03-22T17:07:55;14.60;1.00
573;DHT22;271;51.114;13.780;2024-03-22T17:10:43;14.60;1.00
573;DHT22;271;51.114;13.780;2024-03-22T17:13:30;14.60;1.00
573;DHT22;271;51.114;13.780;2024-03-22T17:16:19;14.60;1.00
573;DHT22;271;51.114;13.780;2024-03-22T17:19:05;14.50;1.00
573;DHT22;271;51.114;13.780;2024-03-22T17:21:53;14.50;1.00
573;DHT22;271;51.114;13.780;2024-03-22T17:24:40;14.50;1.00
573;DHT22;271;51.114;13.780;2024-03-22T17:27:28;14.50;1.00
573;DHT22;271;51.114;13.780;2024-03-22T17:30:15;14.40;1.00
573;DHT22;271;51.114;13.780;2024-03-22T17:33:05;14.40;1.00
573;DHT22;271;51.114;13.780;2024-03-22T17:35:52;14.40;1.00
573;DHT22;271;51.114;13.780;2024-03-22T17:38:39;14.40;1.00
573;DHT22;271;51.114;13.780;2024-03-22T17:41:27;14.30;1.00
573;DHT22;271;51.114;13.780;2024-03-22T17:44:14;14.30;1.00
573;DHT22;271;51.114;13.780;2024-03-22T17:47:02;14.20;1.00
573;DHT22;271;51.114;13.780;2024-03-22T17:49:50;14.20;1.00
573;DHT22;271;51.114;13.780;2024-03-22T17:52:38;13.90;1.00
573;DHT22;271;51.114;13.780;2024-03-22T17:55:25;14.10;1.00
573;DHT22;271;51.114;13.780;2024-03-22T17:58:13;14.10;1.00
573;DHT22;271;51.114;13.780;2024-03-22T18:01:00;14.10;1.00
573;DHT22;271;51.114;13.780;2024-03-22T18:03:48;14.10;1.00
573;DHT22;271;51.114;13.780;2024-03-22T18:06:36;14.10;1.00
573;DHT22;271;51.114;13.780;2024-03-22T18:09:24;14.00;1.00
573;DHT22;271;51.114;13.780;2024-03-22T18:12:10;13.90;1.00
573;DHT22;271;51.114;13.780;2024-03-22T18:14:58;13.90;1.00
573;DHT22;271;51.114;13.780;2024-03-22T18:17:45;13.80;1.00
573;DHT22;271;51.114;13.780;2024-03-22T18:20:33;13.70;1.00
573;DHT22;271;51.114;13.780;2024-03-22T18:23:21;13.60;1.00
573;DHT22;271;51.114;13.780;2024-03-22T18:26:09;13.50;1.00
573;DHT22;271;51.114;13.780;2024-03-22T18:28:56;13.50;1.00
573;DHT22;271;51.114;13.780;2024-03-22T18:31:43;13.40;1.00
573;DHT22;271;51.114;13.780;2024-03-22T18:34:30;13.40;1.00
573;DHT22;271;51.114;13.780;2024-03-22T18:37:19;13.40;1.00
573;DHT22;271;51.114;13.780;2024-03-22T18:40:08;13.30;1.00
573;DHT22;271;51.114;13.780;2024-03-22T18:42:56;13.20;1.00
573;DHT22;271;51.114;13.780;2024-03-22T18:45:43;13.10;1.00
573;DHT22;271;51.114;13.780;2024-03-22T18:48:30;13.00;1.00
573;DHT22;271;51.114;13.780;2024-03-22T18:51:18;12.90;1.00
573;DHT22;271;51.114;13.780;2024-03-22T18:54:06;12.80;1.00
573;DHT22;271;51.114;13.780;2024-03-22T18:56:55;12.70;1.00
573;DHT22;271;51.114;13.780;2024-03-22T18:59:42;12.70;1.00
573;DHT22;271;51.114;13.780;2024-03-22T19:02:29;12.70;1.00
573;DHT22;271;51.114;13.780;2024-03-22T19:05:16;12.70;1.00
573;DHT22;271;51.114;13.780;2024-03-22T19:08:04;12.60;1.00
573;DHT22;271;51.114;13.780;2024-03-22T19:10:54;12.40;1.00
573;DHT22;271;51.114;13.780;2024-03-22T19:13:45;12.40;1.00
573;DHT22;271;51.114;13.780;2024-03-22T19:16:31;12.30;1.00
573;DHT22;271;51.114;13.780;2024-03-22T19:19:20;12.30;1.00
573;DHT22;271;51.114;13.780;2024-03-22T19:22:06;12.30;1.00
573;DHT22;271;51.114;13.780;2024-03-22T19:24:54;12.30;1.00
573;DHT22;271;51.114;13.780;2024-03-22T19:27:41;12.30;1.00
573;DHT22;271;51.114;13.780;2024-03-22T19:30:30;12.20;1.00
573;DHT22;271;51.114;13.780;2024-03-22T19:33:17;12.10;4.90
573;DHT22;271;51.114;13.780;2024-03-22T19:36:05;12.10;6.90
573;DHT22;271;51.114;13.780;2024-03-22T19:38:52;12.10;5.20
573;DHT22;271;51.114;13.780;2024-03-22T19:41:40;12.00;6.00
573;DHT22;271;51.114;13.780;2024-03-22T19:44:27;12.00;8.20
573;DHT22;271;51.114;13.780;2024-03-22T19:47:17;12.00;8.80
573;DHT22;271;51.114;13.780;2024-03-22T19:50:04;12.00;12.90
573;DHT22;271;51.114;13.780;2024-03-22T19:52:52;12.00;15.50
573;DHT22;271;51.114;13.780;2024-03-22T19:55:39;11.90;17.40
573;DHT22;271;51.114;13.780;2024-03-22T19:58:26;11.90;18.60
573;DHT22;271;51.114;13.780;2024-03-22T20:01:14;11.80;21.30
573;DHT22;271;51.114;13.780;2024-03-22T20:04:05;11.80;24.40
573;DHT22;271;51.114;13.780;2024-03-22T20:06:52;11.80;23.10
573;DHT22;271;51.114;13.780;2024-03-22T20:09:39;11.80;23.40
573;DHT22;271;51.114;13.780;2024-03-22T20:12:27;11.90;22.10
573;DHT22;271;51.114;13.780;2024-03-22T20:15:15;11.90;23.00
573;DHT22;271;51.114;13.780;2024-03-22T20:18:02;11.80;21.30
573;DHT22;271;51.114;13.780;2024-03-22T20:20:52;11.80;21.50
573;DHT22;271;51.114;13.780;2024-03-22T20:23:38;11.70;20.00
573;DHT22;271;51.114;13.780;2024-03-22T20:26:26;11.60;18.30
573;DHT22;271;51.114;13.780;2024-03-22T20:29:13;11.60;18.70